AirNav  
 
 896 users online  

6N5 East 34th Street Heliport
New York, New York, USA

GOING TO NEW YORK?


FAA INFORMATION EFFECTIVE 29 MARCH 2018

Location

FAA Identifier: 6N5
Lat/Long: 40-44-33.3660N / 073-58-19.4990W
40-44.556100N / 073-58.324983W
40.7426017 / -73.9720831
(estimated)
Elevation: 10 ft. / 3 m (estimated)
Variation: 13W (1985)
From city: HELIPORT LCTD 5SW OF LAGUARDIA ARPT.
Time zone: UTC -4 (UTC -5 during Standard Time)
Zip code: 10010

Heliport Operations

Heliport use: Open to the public
Control tower: no
ARTCC: NEW YORK CENTER
FSS: NEW YORK FLIGHT SERVICE STATION
NOTAMs facility: ISP (NOTAM-D service available)
Attendance: MON-FRI 0800-2000
Wind indicator: yes
Segmented circle: no
Lights: SS-SR
Beacon: white-green-yellow (heliport)
DUSK-DAWN. BCN LCTD ABOVE OFFICE TRAILER BLO ELEVATED HIGHWAY.
Landing fee: yes

Heliport Communications

CTAF/UNICOM: 123.075
NEW YORK APPROACH: 120.8
NEW YORK DEPARTURE: 120.8
WX AWOS-3PT at JRB (3 nm SW): 128.175 (212-425-1534)
WX ASOS at LGA (5 nm NE): PHONE 718-672-6317
WX ASOS at TEB (8 nm NW): PHONE 201-393-0855
WX ASOS at EWR (9 nm W): PHONE 973-621-2892
WX ASOS at JFK (11 nm SE): PHONE 718-656-0956
WX AWOS-3 at LDJ (14 nm SW): 124.025 (908-862-7383)
WX ASOS at CDW (16 nm NW): PHONE 973-575-4417

Nearby radio navigation aids

VOR radial/distance  VOR name  Freq  Var
LGAr254/5.3LA GUARDIA VOR/DME113.1012W
TEBr158/7.6TETERBORO VOR/DME108.4011W
CRIr347/8.6CANARSIE VOR/DME112.3011W
JFKr318/11.3KENNEDY VOR/DME115.9012W
COLr029/27.2COLTS NECK VOR/DME115.4011W
DPKr276/30.5DEER PARK VOR/DME117.7012W
SAXr138/32.2SPARTA VORTAC115.7011W
SBJr085/36.3SOLBERG VOR/DME112.9010W
CMKr221/36.8CARMEL VOR/DME116.6012W
BWZr106/38.8BROADWAY VOR/DME114.2011W

 
NDB name  Hdg/Dist  Freq  Var  ID
TORBY129/8.221412WTE - .
BRIDGE351/11.241412WOGY --- --. -.--
CHATHAM103/20.825413WCAT -.-. .- -
BABYLON293/27.127514WBBN -... -... -.

Heliport Services

Fuel available: A1
Parking: tiedowns
Airframe service: NONE
Powerplant service: NONE

Runway Information

Helipad H-T

Dimensions: 44 x 44 ft. / 13 x 13 m
ADD'L 7.5 TO BULKHEAD.
Surface: asphalt, in good condition
Runway edge lights: non-standard
Traffic pattern: leftleft

Helipad H2

Dimensions: 44 x 44 ft. / 13 x 13 m
ADD'L 7.5 TO BULKHEAD.
Surface: asphalt, in good condition
Runway edge lights: non-standard
Traffic pattern: leftleft

Helipad H3

Dimensions: 44 x 44 ft. / 13 x 13 m
ADD'L 7.5 TO BULKHEAD.
Surface: asphalt, in good condition
Runway edge lights: non-standard
Traffic pattern: leftleft

Helipad H4

Dimensions: 44 x 44 ft. / 13 x 13 m
ADD'L 7.5 TO BULKHEAD.
Surface: asphalt, in good condition
Runway edge lights: non-standard
Traffic pattern: leftleft

Helipad H1

Dimensions: 37 x 37 ft. / 11 x 11 m
ADD'L 7.5 FT TO BULKHEAD.
Surface: asphalt/concrete, in good condition
Runway edge lights: non-standard
NSTD GREEN PERIMETER LGTS.
Traffic pattern: leftleft
Markings: NSTD, in good condition

Heliport Ownership and Management from official FAA records

Ownership: Publicly-owned
Owner: ECONOMIC DEVELOPMENT CORP
110 WILLIAM ST
NEW YORK, NY 10038
Phone 212-889-2551
Manager: PATRICIA WAGNER
ATLANTIC AVIATION, 499 E. 34TH ST. & F.D.R. DR.
NEW YORK, NY 10016
Phone 212-889-6370

Heliport Operational Statistics

Aircraft operations: avg 50/day *
96% air taxi
3% transient general aviation
2% military
* for 12-month period ending 07 September 2017

Additional Remarks

HELIPORT CLSD SAT & SUN.
ALL OPNS OVER EAST RIVER.
NO LATE OR EARLY OPNS AVBL.
CALL AHEAD FOR PARKING.
"NX RAD" WX SYSTEM AVBL.
IFR CLNC LGA 1-718-779-7901.
A52-H1 RWY H1 LGTD BLDG AND FENCE NW AND SE; ELEVATED HIGHWAY AND BUILDING TO THE WEST, FENCE AND BUILDINGS TO THE NORTH AND SOUTH. RIVER ON THE EAST SIDE,SAILBOATS AND FERRIES POSSIBLY BY EDGE OF PAD.

Instrument Procedures

NOTE: All procedures below are presented as PDF files. If you need a reader for these files, you should download the free Adobe Reader.

NOT FOR NAVIGATION. Please procure official charts for flight.
FAA instrument procedures published for use from 29 March 2018 at 0901Z to 26 April 2018 at 0900Z.

NOTE: Special Take-Off Minimums/Departure Procedures apply   download (592KB)

Other nearby airports with instrument procedures:

KJRA - West 30th St Heliport (2 nm NW)
KJRB - Downtown Manhattan/Wall Street Heliport (3 nm SW)
KLGA - LaGuardia Airport (5 nm NE)
KTEB - Teterboro Airport (8 nm NW)
KEWR - Newark Liberty International Airport (9 nm W)
KJFK - John F Kennedy International Airport (11 nm SE)
KLDJ - Linden Airport (14 nm SW)
KCDW - Essex County Airport (16 nm NW)
N07 - Lincoln Park Airport (20 nm NW)
 
Loc | Ops | Rwys | IFR | FBO | Links
Com | Nav | Svcs | Stats | Notes

AirNav Hotels Sweepstakes
 
Area around 6N5 (East 34th Street Heliport)
 
Road maps at: MapQuest Bing Google
 
Aerial photo
WARNING: Photo may not be current or correct
Aerial photo of 6N5 (East 34th Street Heliport)
Photo by Dave Lu
Photo taken 26-Sep-2012
looking northeast.

Do you have a better or more recent aerial photo of East 34th Street Heliport that you would like to share? If so, please send us your photo.

 
Sectional chart

 
Airport distance calculator
Flying to East 34th Street Heliport? Find the distance to fly.

From to 6N5

Sunrise and sunset
Times for 25-Apr-2018
 Local
(UTC-4)
 Zulu
(UTC)
Morning civil twilight05:3409:34
Sunrise06:0310:03
Sunset19:4423:44
Evening civil twilight20:1400:14

Current date and time
Zulu (UTC)  26-Apr-2018 01:55:12
Local (UTC-4)  25-Apr-2018 21:55:12
 
METAR
KNYC 
2nm N 
260141Z AUTO 00000KT 1SM BR OVC002 13/13 A2970 RMK AO2 T01330128
KJRB 
3nm SW 
260135Z 00000KT 5SM 13/12 RMK AO2 PWINO FZRANO RVRNO
KLGA 
5nm NE 
260100Z 06007KT 1/4SM R04/2600V4000FT -DZ FG VV002 12/11 A2967 RMK AO2 SFC VIS 1/2 P0000 T01170111
KTEB 
8nm NW 
260051Z 04003KT 1SM R06/P6000FT BR OVC002 13/13 A2965 RMK AO2 SLP040 T01330133
KEWR 
10nm W 
260124Z 00000KT 1SM R04R/P6000FT BR OVC006 13/13 A2968 RMK AO2 T01280128
KJFK 
11nm SE 
260051Z 00000KT 1/4SM R04R/1600V2000FT FG VV002 12/12 A2968 RMK AO2 TWR VIS 1/2 SLP050 T01170117
KLDJ 
14nm SW 
260115Z AUTO 00000KT 4SM BR BKN004 OVC009 14/12 A2968 RMK AO2 T01350122
KCDW 
16nm NW 
260122Z 09003KT 3SM BR BKN004 OVC016 14/14 A2968 RMK AO2 T01390139
TAF
KLGA 
5nm NE 
260029Z 2600/2706 06008KT 1 1/2SM -DZ BR OVC003 FM260300 VRB05KT 1/2SM -DZ FG OVC003 FM260800 30009KT 4SM BR SCT005 OVC045 FM261000 29010KT P6SM SCT250 FM261300 29012G18KT P6SM SCT250 FM262000 27011G18KT P6SM FEW250 FM262200 26011KT P6SM SKC FM270200 VRB05KT P6SM SKC
KTEB 
8nm NW 
252051Z 2521/2624 VRB04KT 1SM -DZ BR OVC004 TEMPO 2521/2523 2SM BR OVC005 FM252300 VRB04KT 1/2SM -DZ FG OVC003 FM260200 VRB03KT 1/2SM FG VCSH OVC003 FM260800 30007KT 3SM BR SCT005 OVC015 FM261000 29010KT P6SM FEW010 BKN025 FM261300 28012KT P6SM SCT035 SCT100 FM261600 27012G20KT P6SM SCT250
KEWR 
10nm W 
252126Z 2521/2624 VRB05KT 1SM -DZ BR OVC003 TEMPO 2521/2523 3SM BR FM252300 VRB04KT 1/2SM -DZ FG OVC002 FM260200 VRB04KT 1/2SM FG VCSH OVC003 FM260800 30007KT 3SM BR SCT005 OVC015 FM261000 29010KT P6SM FEW010 BKN025 FM261300 28012KT P6SM SCT035 SCT100 FM261600 27012G20KT P6SM SCT250
KJFK 
11nm SE 
260000Z 2600/2706 VRB04KT 1/2SM -DZ FG VV002 TEMPO 2600/2604 1/4SM -DZ FG VV002 FM260800 29008KT 4SM BR SCT005 OVC045 FM261000 29011KT P6SM SCT250 FM261300 28014G21KT P6SM SCT250 FM261700 26015G22KT P6SM FEW250 FM262000 24015G22KT P6SM FEW250 FM262300 23010KT P6SM SKC FM270300 VRB05KT P6SM SKC
NOTAMs
Click for the latest NOTAMs
NOTAMs are issued by the DoD/FAA and will open in a separate window not controlled by AirNav.

 

 
 

FBO, Fuel Providers, and Aircraft Ground Support

  
 Business Name 
 
 Contact 
 
 Services / Description 
 
Fuel Prices
 
Comments
  
Atlantic Aviation UNICOM 123.075
212-889-2319
212-889-2551
[web site]
[email]
New York City's Award-Winning Heliport
More info and photos of Atlantic Aviation
independent
Jet A
FS $8.15 
 Updated 07-Dec-2015
 
   write
FS=Full service
Update Fuel Prices
 

Would you like to see your business listed on this page?

 If your business provides an interesting product or service to pilots, flight crews, aircraft, or users of the East 34th Street Heliport, you should consider listing it here.  To start the listing process, click on the button below
 
Add a business
 

Other Pages about East 34th Street Heliport

www.amport-aviation.com/...
 
Update a link
 
Copyright © AirNav, LLC. All rights reserved. Privacy Policy  Contact